createdAt,value
2019-02-05T00:01:52.499Z,13.03
2019-02-05T00:11:57.315Z,12.20
2019-02-05T00:22:02.230Z,13.93
2019-02-05T00:32:06.915Z,11.90
2019-02-05T00:42:11.594Z,11.57
2019-02-05T00:52:16.334Z,11.47
2019-02-05T01:02:21.079Z,12.53
2019-02-05T01:12:26.072Z,12.10
2019-02-05T01:22:30.810Z,13.27
2019-02-05T01:32:35.470Z,12.93
2019-02-05T01:42:40.147Z,12.13
2019-02-05T01:52:44.795Z,11.77
2019-02-05T02:02:50.094Z,12.10
2019-02-05T02:12:54.927Z,12.77
2019-02-05T02:22:59.600Z,13.30
2019-02-05T02:33:04.466Z,13.80
2019-02-05T02:43:09.528Z,12.93
2019-02-05T02:53:14.182Z,12.27
2019-02-05T03:03:19.001Z,13.80
2019-02-05T03:13:23.700Z,13.77
2019-02-05T03:23:28.685Z,14.80
2019-02-05T03:33:34.324Z,15.57
2019-02-05T03:43:41.784Z,16.23
2019-02-05T03:53:48.352Z,17.33
2019-02-05T04:04:06.678Z,18.60
2019-02-05T04:14:18.709Z,18.00
2019-02-05T04:24:40.617Z,17.93
2019-02-05T04:35:00.400Z,16.77
2019-02-05T04:45:17.295Z,15.40
2019-02-05T04:55:38.151Z,13.33
2019-02-05T05:06:04.916Z,13.43
2019-02-05T05:16:09.641Z,12.00
2019-02-05T05:26:14.544Z,14.10
2019-02-05T05:36:19.389Z,10.17
2019-02-05T05:46:24.117Z,10.10
2019-02-05T05:56:28.937Z,10.43
2019-02-05T06:06:33.724Z,10.83
2019-02-05T06:16:38.742Z,8.90
2019-02-05T06:26:43.715Z,9.13
2019-02-05T06:36:48.364Z,9.43
2019-02-05T06:46:53.149Z,8.43
2019-02-05T06:56:58.027Z,9.53
2019-02-05T07:07:03.004Z,9.53
2019-02-05T07:17:07.881Z,8.77
2019-02-05T07:27:13.887Z,9.80
2019-02-05T07:37:18.659Z,9.97
2019-02-05T07:47:23.593Z,10.37
2019-02-05T07:57:28.438Z,11.30
2019-02-05T08:07:33.267Z,11.67
2019-02-05T08:17:37.981Z,11.07
2019-02-05T08:27:42.712Z,9.60
2019-02-05T08:37:47.555Z,9.37
2019-02-05T08:47:52.356Z,9.80
2019-02-05T08:57:58.320Z,9.03
2019-02-05T09:08:03.648Z,10.13
2019-02-05T09:18:08.594Z,10.07
2019-02-05T09:28:13.349Z,11.23
2019-02-05T09:38:18.256Z,11.87
2019-02-05T09:48:23.206Z,13.07
2019-02-05T09:58:27.911Z,10.80
2019-02-05T10:08:32.575Z,10.20
2019-02-05T10:18:37.595Z,11.33
2019-02-05T10:28:42.472Z,11.10
2019-02-05T10:38:47.240Z,10.67
2019-02-05T10:48:52.160Z,11.87
2019-02-05T10:58:57.078Z,12.60
2019-02-05T11:09:01.928Z,12.83
2019-02-05T11:19:07.859Z,11.53
2019-02-05T11:29:12.910Z,12.83
2019-02-05T11:39:17.795Z,12.17
2019-02-05T11:49:22.445Z,12.30
2019-02-05T11:59:27.212Z,11.27
2019-02-05T12:09:32.047Z,12.83
2019-02-05T12:19:36.698Z,12.40
2019-02-05T12:29:41.408Z,12.93
2019-02-05T12:39:46.182Z,13.03
2019-02-05T12:49:50.859Z,13.90
2019-02-05T12:59:55.731Z,13.13
2019-02-05T13:10:00.450Z,13.07
2019-02-05T13:20:06.499Z,13.73
2019-02-05T13:30:12.299Z,13.57
2019-02-05T13:40:18.094Z,12.80
2019-02-05T13:50:32.471Z,13.40
2019-02-05T14:00:31.633Z,13.30
2019-02-05T14:10:36.598Z,14.73
2019-02-05T14:20:41.590Z,13.80
2019-02-05T14:30:48.095Z,15.20
2019-02-05T14:40:53.193Z,14.93
2019-02-05T14:51:01.782Z,14.80
2019-02-05T15:01:06.620Z,15.77
2019-02-05T15:11:11.994Z,16.47
2019-02-05T15:21:16.735Z,16.70
2019-02-05T15:31:21.510Z,17.83
2019-02-05T15:41:26.767Z,17.47
2019-02-05T15:51:31.560Z,19.57
2019-02-05T16:01:36.238Z,19.03
2019-02-05T16:11:41.370Z,19.87
2019-02-05T16:21:46.332Z,20.03
2019-02-05T16:31:50.976Z,22.07
2019-02-05T16:41:56.012Z,20.73
2019-02-05T16:52:00.834Z,22.23
2019-02-05T17:02:05.546Z,21.37
2019-02-05T17:12:10.681Z,22.13
2019-02-05T17:22:15.470Z,29.27
2019-02-05T17:32:20.114Z,23.03
2019-02-05T17:42:24.969Z,28.50
2019-02-05T17:52:29.953Z,26.40
2019-02-05T18:02:34.697Z,25.90
2019-02-05T18:12:39.403Z,27.17
2019-02-05T18:22:44.245Z,26.90
2019-02-05T18:32:49.329Z,31.10
2019-02-05T18:42:54.346Z,31.47
2019-02-05T18:52:59.116Z,30.57
2019-02-05T19:03:14.537Z,31.27
2019-02-05T19:13:10.389Z,30.60
2019-02-05T19:23:16.096Z,29.50
2019-02-05T19:33:27.331Z,29.67
2019-02-05T19:43:27.369Z,29.83
2019-02-05T19:53:33.066Z,30.77
2019-02-05T20:03:39.003Z,34.57
2019-02-05T20:13:43.819Z,33.90
2019-02-05T20:23:48.625Z,31.00
2019-02-05T20:33:53.562Z,34.27
2019-02-05T20:43:58.315Z,35.30
2019-02-05T20:54:03.180Z,33.27
2019-02-05T21:04:07.958Z,38.90
2019-02-05T21:14:13.070Z,35.47
2019-02-05T21:24:17.966Z,35.43
2019-02-05T21:34:22.750Z,32.80
2019-02-05T21:44:28.061Z,35.53
2019-02-05T21:54:32.790Z,33.23
2019-02-05T22:04:37.617Z,32.17
2019-02-05T22:14:42.375Z,31.30
2019-02-05T22:24:48.560Z,30.50
2019-02-05T22:34:53.602Z,33.03
2019-02-05T22:44:58.284Z,32.00
2019-02-05T22:55:03.158Z,29.40
2019-02-05T23:05:33.453Z,29.47
2019-02-05T23:15:40.266Z,82.30
2019-02-05T23:25:45.474Z,35.47
2019-02-05T23:35:50.328Z,31.80
2019-02-05T23:46:01.397Z,28.07
2019-02-05T23:56:01.956Z,27.77
